createdAt,value
2018-11-11T00:00:02.563Z,0
2018-11-11T00:00:42.953Z,0
2018-11-11T00:01:23.461Z,0
2018-11-11T00:02:03.853Z,0
2018-11-11T00:02:44.271Z,0
2018-11-11T00:03:24.664Z,0
2018-11-11T00:04:05.020Z,0
2018-11-11T00:04:45.619Z,0
2018-11-11T00:05:26.222Z,0
2018-11-11T00:06:06.588Z,0
2018-11-11T00:06:46.964Z,0
2018-11-11T00:07:27.358Z,0
2018-11-11T00:08:07.867Z,0
2018-11-11T00:08:48.660Z,0
2018-11-11T00:09:28.998Z,0
2018-11-11T00:10:09.364Z,0
2018-11-11T00:10:49.924Z,0
2018-11-11T00:11:30.354Z,0
2018-11-11T00:12:10.759Z,0
2018-11-11T00:12:51.348Z,0
2018-11-11T00:13:31.673Z,0
2018-11-11T00:14:12.034Z,0
2018-11-11T00:14:52.439Z,0
2018-11-11T00:15:32.862Z,0
2018-11-11T00:16:13.455Z,0
2018-11-11T00:16:53.875Z,0
2018-11-11T00:17:34.432Z,0
2018-11-11T00:18:14.808Z,0
2018-11-11T00:18:55.199Z,0
2018-11-11T00:19:35.644Z,0
2018-11-11T00:20:16.087Z,0
2018-11-11T00:20:56.515Z,0
2018-11-11T00:21:36.932Z,0
2018-11-11T00:22:17.304Z,0
2018-11-11T00:22:57.885Z,0
2018-11-11T00:23:38.553Z,0
2018-11-11T00:24:18.682Z,0
2018-11-11T00:24:59.258Z,0
2018-11-11T00:25:39.530Z,0
2018-11-11T00:26:19.918Z,0
2018-11-11T00:27:00.323Z,0
2018-11-11T00:27:40.747Z,0
2018-11-11T00:28:21.207Z,0
2018-11-11T00:29:01.626Z,0
2018-11-11T00:29:42.115Z,0
2018-11-11T00:30:22.406Z,0
2018-11-11T00:32:50.491Z,0
2018-11-11T00:33:30.673Z,0
2018-11-11T00:34:11.431Z,0
2018-11-11T00:34:51.817Z,0
2018-11-11T00:35:32.310Z,0
2018-11-11T00:36:12.730Z,0
2018-11-11T00:36:53.179Z,0
2018-11-11T00:37:33.537Z,0
2018-11-11T00:38:13.985Z,0
2018-11-11T00:38:54.399Z,0
2018-11-11T00:39:34.787Z,0
2018-11-11T00:40:15.291Z,0
2018-11-11T00:40:55.656Z,0
2018-11-11T00:41:36.043Z,0
2018-11-11T00:42:18.284Z,0
2018-11-11T00:42:58.672Z,0
2018-11-11T00:43:39.075Z,0
2018-11-11T00:44:19.417Z,0
2018-11-11T00:44:59.969Z,0
2018-11-11T00:45:40.554Z,0
2018-11-11T00:46:20.862Z,0
2018-11-11T00:47:01.150Z,0
2018-11-11T00:47:41.866Z,0
2018-11-11T00:48:22.216Z,0
2018-11-11T00:49:02.756Z,0
2018-11-11T00:49:43.243Z,0
2018-11-11T00:50:24.005Z,0
2018-11-11T00:51:04.349Z,0
2018-11-11T00:51:45.079Z,0
2018-11-11T00:52:25.669Z,0
2018-11-11T00:53:05.989Z,0
2018-11-11T00:55:27.398Z,0
2018-11-11T00:56:07.672Z,0
2018-11-11T00:56:48.131Z,0
2018-11-11T00:57:28.639Z,0
2018-11-11T00:58:09.030Z,0
2018-11-11T00:58:49.389Z,0
2018-11-11T00:59:30.103Z,0
2018-11-11T01:00:10.424Z,0
2018-11-11T01:00:51.414Z,0
2018-11-11T01:01:31.997Z,0
2018-11-11T01:02:12.337Z,0
2018-11-11T01:02:52.802Z,0
2018-11-11T01:03:33.313Z,0
2018-11-11T01:04:13.858Z,0
2018-11-11T01:04:54.442Z,0
2018-11-11T01:05:35.083Z,0
2018-11-11T01:06:15.456Z,0
2018-11-11T01:06:55.929Z,0
2018-11-11T01:07:36.422Z,0
2018-11-11T01:08:16.898Z,0
2018-11-11T01:08:57.330Z,0
2018-11-11T01:09:37.824Z,0
2018-11-11T01:11:38.344Z,0
2018-11-11T01:12:18.305Z,0
2018-11-11T01:12:58.939Z,0
2018-11-11T01:13:39.602Z,0
2018-11-11T01:14:19.908Z,0
2018-11-11T01:15:00.314Z,0
2018-11-11T01:15:40.701Z,0
2018-11-11T01:16:21.137Z,0
2018-11-11T01:17:01.552Z,0
2018-11-11T01:17:41.913Z,0
2018-11-11T01:18:22.364Z,0
2018-11-11T01:19:02.692Z,0
2018-11-11T01:19:43.080Z,0
2018-11-11T01:20:23.557Z,0
2018-11-11T01:21:03.863Z,0
2018-11-11T01:21:44.322Z,0
2018-11-11T01:22:24.730Z,0
2018-11-11T01:23:05.130Z,0
2018-11-11T01:23:45.576Z,0
2018-11-11T01:24:25.983Z,0
2018-11-11T01:25:06.554Z,0
2018-11-11T01:25:47.029Z,0
2018-11-11T01:26:27.485Z,0
2018-11-11T01:27:07.937Z,0
2018-11-11T01:27:48.433Z,0
2018-11-11T01:28:28.840Z,0
2018-11-11T01:29:09.248Z,0
2018-11-11T01:29:49.645Z,0
2018-11-11T01:30:30.132Z,0
2018-11-11T01:31:10.544Z,0
2018-11-11T01:31:51.045Z,0
2018-11-11T01:32:31.439Z,0
2018-11-11T01:33:11.832Z,0
2018-11-11T01:33:52.381Z,0
2018-11-11T01:34:32.934Z,0
2018-11-11T01:35:13.329Z,0
2018-11-11T01:35:53.787Z,0
2018-11-11T01:36:34.396Z,0
2018-11-11T01:37:14.651Z,0
2018-11-11T01:37:55.011Z,0
2018-11-11T01:38:35.620Z,0
2018-11-11T01:39:15.998Z,0
2018-11-11T01:39:56.231Z,0
2018-11-11T01:40:36.661Z,0
2018-11-11T01:41:17.140Z,0
2018-11-11T01:41:57.555Z,0
2018-11-11T01:42:37.903Z,0
2018-11-11T01:43:18.412Z,0
2018-11-11T01:43:58.939Z,0
2018-11-11T01:44:39.572Z,0
2018-11-11T01:45:20.040Z,0
2018-11-11T01:46:00.643Z,0
2018-11-11T01:46:41.317Z,0
2018-11-11T01:47:21.690Z,0
2018-11-11T01:48:02.118Z,0
2018-11-11T01:48:42.558Z,0
2018-11-11T01:49:23.034Z,0
2018-11-11T01:50:03.410Z,0
2018-11-11T01:50:43.869Z,0
2018-11-11T01:51:24.262Z,0
2018-11-11T01:52:04.719Z,0
2018-11-11T01:52:45.127Z,0
2018-11-11T01:53:25.524Z,0
2018-11-11T01:54:05.951Z,0
2018-11-11T01:54:46.350Z,0
2018-11-11T01:55:26.832Z,0
2018-11-11T01:56:07.248Z,0
2018-11-11T01:56:47.585Z,0
2018-11-11T01:57:28.040Z,0
2018-11-11T01:58:08.353Z,0
2018-11-11T01:58:48.785Z,0
2018-11-11T01:59:29.279Z,0
2018-11-11T02:00:09.765Z,0
2018-11-11T02:00:50.109Z,0
2018-11-11T02:01:30.512Z,0
2018-11-11T02:02:10.892Z,0
2018-11-11T02:02:51.395Z,0
2018-11-11T02:03:31.896Z,0
2018-11-11T02:04:12.280Z,0
2018-11-11T02:04:52.883Z,0
2018-11-11T02:05:33.344Z,0
2018-11-11T02:06:13.749Z,0
2018-11-11T02:06:54.574Z,0
2018-11-11T02:07:34.799Z,0
2018-11-11T02:08:15.188Z,0
2018-11-11T02:08:55.647Z,0
2018-11-11T02:09:36.033Z,0
2018-11-11T02:10:16.496Z,0
2018-11-11T02:10:56.902Z,0
2018-11-11T02:11:37.293Z,0
2018-11-11T02:12:17.704Z,0
2018-11-11T02:12:58.188Z,0
2018-11-11T02:13:38.562Z,0
2018-11-11T02:14:18.989Z,0
2018-11-11T02:14:59.340Z,0
2018-11-11T02:15:39.761Z,0
2018-11-11T02:16:20.227Z,0
2018-11-11T02:17:00.587Z,0
2018-11-11T02:17:41.010Z,0
2018-11-11T02:18:21.452Z,0
2018-11-11T02:19:01.840Z,0
2018-11-11T02:19:42.245Z,0
2018-11-11T02:20:22.720Z,0
2018-11-11T02:21:03.246Z,0
2018-11-11T02:21:43.623Z,0
2018-11-11T02:22:24.213Z,0
2018-11-11T02:23:04.358Z,0
2018-11-11T02:23:44.808Z,0
2018-11-11T02:24:25.245Z,0
2018-11-11T02:25:05.698Z,0
2018-11-11T02:25:46.081Z,0
2018-11-11T02:26:26.509Z,0
2018-11-11T02:27:07.179Z,0
2018-11-11T02:27:47.408Z,0
2018-11-11T02:28:27.769Z,0
2018-11-11T02:29:08.167Z,0
2018-11-11T02:29:48.843Z,0
2018-11-11T02:30:29.041Z,0
2018-11-11T02:31:09.451Z,0
2018-11-11T02:31:49.811Z,0
2018-11-11T02:32:30.228Z,0
2018-11-11T02:33:10.638Z,0
2018-11-11T02:33:51.133Z,0
2018-11-11T02:34:31.511Z,0
2018-11-11T02:35:11.810Z,0
2018-11-11T02:35:52.231Z,0
2018-11-11T02:36:32.670Z,0
2018-11-11T02:37:13.223Z,0
2018-11-11T02:37:53.578Z,0
2018-11-11T02:38:34.223Z,0
2018-11-11T02:39:14.455Z,0
2018-11-11T02:39:54.911Z,0
2018-11-11T02:40:35.440Z,0
2018-11-11T02:41:15.787Z,0
2018-11-11T02:41:56.182Z,0
2018-11-11T02:42:36.594Z,0
2018-11-11T02:43:17.020Z,0
2018-11-11T02:43:57.491Z,0
2018-11-11T02:44:37.878Z,0
2018-11-11T02:45:18.375Z,0
2018-11-11T02:45:58.767Z,0
2018-11-11T02:46:39.408Z,0
2018-11-11T02:47:19.910Z,0
2018-11-11T02:48:00.261Z,0
2018-11-11T02:48:40.658Z,0
2018-11-11T02:49:21.138Z,0
2018-11-11T02:50:01.519Z,0
2018-11-11T02:50:41.954Z,0
2018-11-11T02:51:22.377Z,0
2018-11-11T02:52:03.079Z,0
2018-11-11T02:52:43.536Z,0
2018-11-11T02:53:24.094Z,0
2018-11-11T02:54:04.431Z,0
2018-11-11T02:54:44.797Z,0
2018-11-11T02:55:25.132Z,0
2018-11-11T02:56:05.931Z,0
2018-11-11T02:56:46.118Z,0
2018-11-11T02:57:26.450Z,0
2018-11-11T02:58:06.885Z,0
2018-11-11T02:58:47.497Z,0
2018-11-11T02:59:27.928Z,0
2018-11-11T03:00:08.458Z,0
2018-11-11T03:00:48.854Z,0
2018-11-11T03:01:29.138Z,0
2018-11-11T03:02:09.765Z,0
2018-11-11T03:02:50.100Z,0
2018-11-11T03:03:30.657Z,0
2018-11-11T03:04:11.149Z,0
2018-11-11T03:04:51.505Z,0
2018-11-11T03:05:31.883Z,0
2018-11-11T03:06:12.446Z,0
2018-11-11T03:06:52.971Z,0
2018-11-11T03:07:33.371Z,0
2018-11-11T03:08:13.735Z,0
2018-11-11T03:08:54.133Z,0
2018-11-11T03:09:34.574Z,0
2018-11-11T03:10:14.907Z,0
2018-11-11T03:10:55.379Z,0
2018-11-11T03:11:35.725Z,0
2018-11-11T03:12:16.111Z,0
2018-11-11T03:12:56.556Z,0
2018-11-11T03:13:36.928Z,0
2018-11-11T03:14:17.432Z,0
2018-11-11T03:14:57.793Z,0
2018-11-11T03:15:38.215Z,0
2018-11-11T03:16:18.609Z,0
2018-11-11T03:16:59.053Z,0
2018-11-11T03:17:39.539Z,0
2018-11-11T03:18:19.948Z,0
2018-11-11T03:19:00.312Z,0
2018-11-11T03:19:40.725Z,0
2018-11-11T03:22:14.080Z,0
2018-11-11T03:22:54.364Z,0
2018-11-11T03:23:34.816Z,0
2018-11-11T03:24:15.149Z,0
2018-11-11T03:24:55.638Z,0
2018-11-11T03:25:35.991Z,0
2018-11-11T03:26:16.376Z,0
2018-11-11T03:26:56.772Z,0
2018-11-11T03:27:37.167Z,0
2018-11-11T03:28:17.645Z,0
2018-11-11T03:30:46.188Z,0
2018-11-11T03:31:26.310Z,0
2018-11-11T03:32:06.827Z,0
2018-11-11T03:32:47.839Z,0
2018-11-11T03:33:27.580Z,0
2018-11-11T03:34:07.975Z,0
2018-11-11T03:34:48.458Z,0
2018-11-11T03:35:28.790Z,0
2018-11-11T03:36:09.229Z,0
2018-11-11T03:36:49.638Z,0
2018-11-11T03:37:30.022Z,0
2018-11-11T03:38:10.599Z,0
2018-11-11T03:38:50.931Z,0
2018-11-11T03:39:31.360Z,0
2018-11-11T03:40:11.738Z,0
2018-11-11T03:40:52.368Z,0
2018-11-11T03:41:32.657Z,0
2018-11-11T03:42:13.069Z,0
2018-11-11T03:42:53.424Z,0
2018-11-11T03:43:33.843Z,0
2018-11-11T03:44:14.302Z,0
2018-11-11T03:44:54.650Z,0
2018-11-11T03:45:35.130Z,0
2018-11-11T03:46:15.447Z,0
2018-11-11T03:46:55.857Z,0
2018-11-11T03:47:36.322Z,0
2018-11-11T03:48:16.732Z,0
2018-11-11T03:48:57.159Z,0
2018-11-11T03:49:37.590Z,0
2018-11-11T03:50:17.933Z,0
2018-11-11T03:50:58.339Z,0
2018-11-11T03:51:38.758Z,0
2018-11-11T03:52:19.208Z,0
2018-11-11T03:52:59.600Z,0
2018-11-11T03:53:39.981Z,0
2018-11-11T03:54:20.561Z,0
2018-11-11T03:55:00.912Z,0
2018-11-11T03:55:41.246Z,0
2018-11-11T03:56:21.627Z,0
2018-11-11T03:57:02.061Z,0
2018-11-11T03:57:42.479Z,0
2018-11-11T03:58:22.917Z,0
2018-11-11T03:59:03.340Z,0
2018-11-11T03:59:43.809Z,0
2018-11-11T04:00:24.308Z,0
2018-11-11T04:01:04.617Z,0
2018-11-11T04:01:45.094Z,0
2018-11-11T04:02:25.440Z,0
2018-11-11T04:03:05.864Z,0
2018-11-11T04:03:46.346Z,0
2018-11-11T04:04:26.745Z,0
2018-11-11T04:05:07.225Z,0
2018-11-11T04:05:47.607Z,0
2018-11-11T04:06:27.957Z,0
2018-11-11T04:07:08.435Z,0
2018-11-11T04:07:48.811Z,0
2018-11-11T04:08:29.332Z,0
2018-11-11T04:09:09.699Z,0
2018-11-11T04:09:50.106Z,0
2018-11-11T04:10:30.698Z,0
2018-11-11T04:11:10.995Z,0
2018-11-11T04:11:51.396Z,0
2018-11-11T04:12:31.831Z,0
2018-11-11T04:13:12.306Z,0
2018-11-11T04:13:52.685Z,0
2018-11-11T04:14:33.013Z,0
2018-11-11T04:15:13.508Z,0
2018-11-11T04:15:53.965Z,0
2018-11-11T04:16:34.492Z,0
2018-11-11T04:17:14.786Z,0
2018-11-11T04:17:55.215Z,0
2018-11-11T04:18:35.805Z,0
2018-11-11T04:19:16.213Z,0
2018-11-11T04:21:44.326Z,0
2018-11-11T04:22:24.558Z,0
2018-11-11T04:23:04.990Z,0
2018-11-11T04:23:45.412Z,0
2018-11-11T04:24:25.918Z,0
2018-11-11T04:25:06.383Z,0
2018-11-11T04:25:46.732Z,0
2018-11-11T04:26:27.097Z,0
2018-11-11T04:27:07.521Z,0
2018-11-11T05:08:11.988Z,0
2018-11-11T05:08:52.681Z,0
2018-11-11T05:09:33.056Z,0
2018-11-11T05:10:13.534Z,0
2018-11-11T05:10:54.121Z,0
2018-11-11T05:11:34.614Z,0
2018-11-11T05:12:15.175Z,0
2018-11-11T05:12:55.501Z,0
2018-11-11T05:13:35.970Z,0
2018-11-11T05:14:16.428Z,0
2018-11-11T05:14:56.791Z,0
2018-11-11T05:15:37.249Z,0
2018-11-11T05:16:17.755Z,0
2018-11-11T05:16:58.113Z,0
2018-11-11T05:17:39.069Z,0
2018-11-11T05:18:19.041Z,0
2018-11-11T05:18:59.558Z,0
2018-11-11T05:19:39.835Z,0
2018-11-11T05:20:20.240Z,0
2018-11-11T05:21:00.873Z,0
2018-11-11T05:21:41.822Z,0
2018-11-11T05:22:22.149Z,0
2018-11-11T05:23:02.644Z,0
2018-11-11T05:23:43.035Z,0
2018-11-11T05:24:23.392Z,0
2018-11-11T05:25:03.886Z,0
2018-11-11T05:25:44.248Z,0
2018-11-11T05:26:24.714Z,0
2018-11-11T05:27:05.173Z,0
2018-11-11T05:27:45.474Z,0
2018-11-11T05:28:25.883Z,0
2018-11-11T05:29:06.799Z,0
2018-11-11T05:29:47.086Z,0
2018-11-11T05:30:27.488Z,0
2018-11-11T05:31:07.940Z,0
2018-11-11T05:31:48.344Z,0
2018-11-11T05:32:28.702Z,0
2018-11-11T05:33:09.091Z,0
2018-11-11T05:33:49.643Z,0
2018-11-11T05:34:30.059Z,0
2018-11-11T05:35:10.428Z,0
2018-11-11T05:35:51.023Z,0
2018-11-11T05:36:31.378Z,0
2018-11-11T05:37:11.810Z,0
2018-11-11T05:37:52.232Z,0
2018-11-11T05:38:32.696Z,0
2018-11-11T05:39:13.106Z,0
2018-11-11T05:39:53.595Z,0
2018-11-11T05:40:34.088Z,0
2018-11-11T05:41:14.486Z,0
2018-11-11T05:41:54.840Z,0
2018-11-11T05:42:35.226Z,0
2018-11-11T05:43:15.641Z,0
2018-11-11T05:43:56.063Z,0
2018-11-11T05:44:36.580Z,0
2018-11-11T05:45:17.072Z,0
2018-11-11T05:45:57.447Z,0
2018-11-11T05:46:37.865Z,0
2018-11-11T05:47:18.315Z,0
2018-11-11T05:47:58.795Z,0
2018-11-11T05:48:39.329Z,0
2018-11-11T05:49:19.970Z,0
2018-11-11T05:50:00.212Z,0
2018-11-11T05:50:40.614Z,0
2018-11-11T05:51:21.047Z,0
2018-11-11T05:52:01.519Z,0
2018-11-11T05:52:41.960Z,0
2018-11-11T05:53:22.314Z,0
2018-11-11T05:54:02.779Z,0
2018-11-11T05:54:43.189Z,0
2018-11-11T05:55:23.592Z,0
2018-11-11T05:56:03.964Z,0
2018-11-11T05:56:44.437Z,0
2018-11-11T05:57:24.879Z,0
2018-11-11T05:58:05.424Z,0
2018-11-11T05:58:45.748Z,0
2018-11-11T05:59:26.235Z,0
2018-11-11T06:00:06.571Z,0
2018-11-11T06:00:47.209Z,0
2018-11-11T06:03:20.768Z,0
2018-11-11T06:04:01.049Z,0
2018-11-11T06:04:41.454Z,0
2018-11-11T06:05:21.832Z,0
2018-11-11T06:06:02.451Z,0
2018-11-11T06:06:42.730Z,0
2018-11-11T06:07:23.176Z,0
2018-11-11T06:08:03.554Z,0
2018-11-11T06:08:44.058Z,0
2018-11-11T06:09:24.542Z,0
2018-11-11T06:11:40.227Z,0
2018-11-11T06:12:20.523Z,0
2018-11-11T06:13:00.917Z,0
2018-11-11T06:13:41.288Z,0
2018-11-11T06:14:21.674Z,0
2018-11-11T06:15:02.078Z,0
2018-11-11T06:15:42.666Z,0
2018-11-11T06:16:23.102Z,0
2018-11-11T06:17:03.505Z,0
2018-11-11T06:17:43.902Z,0
2018-11-11T06:18:24.283Z,0
2018-11-11T06:19:04.721Z,4
2018-11-11T06:19:45.079Z,4
2018-11-11T06:20:25.476Z,0
2018-11-11T06:22:38.223Z,4
2018-11-11T06:23:18.650Z,4
2018-11-11T06:23:59.040Z,4
2018-11-11T06:24:39.509Z,4
2018-11-11T06:25:19.906Z,4
2018-11-11T06:26:00.282Z,0
2018-11-11T06:26:40.683Z,4
2018-11-11T06:27:21.148Z,4
2018-11-11T06:28:01.507Z,4
2018-11-11T06:28:41.902Z,8
2018-11-11T06:29:22.335Z,8
2018-11-11T06:30:02.769Z,4
2018-11-11T06:30:43.134Z,4
2018-11-11T06:31:23.578Z,8
2018-11-11T06:32:03.949Z,8
2018-11-11T06:32:44.364Z,8
2018-11-11T06:33:24.740Z,12
2018-11-11T06:34:05.231Z,8
2018-11-11T06:34:45.621Z,8
2018-11-11T06:35:26.035Z,8
2018-11-11T06:36:06.405Z,8
2018-11-11T06:36:46.833Z,12
2018-11-11T06:37:27.272Z,12
2018-11-11T06:38:07.707Z,12
2018-11-11T06:38:48.118Z,12
2018-11-11T06:39:28.514Z,12
2018-11-11T06:40:08.931Z,12
2018-11-11T06:40:49.321Z,12
2018-11-11T06:41:29.723Z,16
2018-11-11T06:42:10.138Z,12
2018-11-11T06:42:50.560Z,20
2018-11-11T06:43:30.969Z,20
2018-11-11T06:44:11.334Z,24
2018-11-11T06:44:51.788Z,20
2018-11-11T06:45:32.158Z,20
2018-11-11T06:46:12.637Z,24
2018-11-11T06:46:53.094Z,28
2018-11-11T06:47:33.482Z,28
2018-11-11T06:48:13.894Z,28
2018-11-11T06:48:54.239Z,28
2018-11-11T06:49:34.638Z,32
2018-11-11T06:50:15.028Z,32
2018-11-11T06:50:55.431Z,32
2018-11-11T06:53:08.655Z,36
2018-11-11T06:53:48.760Z,40
2018-11-11T06:54:29.169Z,40
2018-11-11T06:55:09.587Z,40
2018-11-11T06:55:49.978Z,40
2018-11-11T06:56:30.391Z,40
2018-11-11T06:57:10.808Z,44
2018-11-11T06:57:51.252Z,40
2018-11-11T06:58:31.761Z,44
2018-11-11T06:59:12.030Z,40
2018-11-11T06:59:52.463Z,40
2018-11-11T07:00:33.034Z,36
2018-11-11T07:01:13.633Z,32
2018-11-11T07:01:53.952Z,36
2018-11-11T07:02:34.357Z,36
2018-11-11T07:03:14.727Z,36
2018-11-11T07:03:55.144Z,44
2018-11-11T07:04:35.638Z,52
2018-11-11T07:05:16.007Z,56
2018-11-11T07:05:56.576Z,60
2018-11-11T07:06:36.998Z,64
2018-11-11T07:07:17.572Z,76
2018-11-11T07:07:58.098Z,76
2018-11-11T07:10:34.814Z,88
2018-11-11T07:11:15.979Z,92
2018-11-11T07:11:56.546Z,88
2018-11-11T07:12:36.813Z,100
2018-11-11T07:13:17.193Z,100
2018-11-11T07:13:57.842Z,116
2018-11-11T07:14:38.209Z,108
2018-11-11T07:15:18.732Z,124
2018-11-11T07:15:59.092Z,132
2018-11-11T07:16:39.492Z,152
2018-11-11T07:17:19.920Z,184
2018-11-11T07:18:00.456Z,256
2018-11-11T07:18:40.869Z,240
2018-11-11T07:19:21.350Z,212
2018-11-11T07:20:01.753Z,180
2018-11-11T07:20:42.168Z,160
2018-11-11T07:21:22.968Z,144
2018-11-11T07:22:03.380Z,136
2018-11-11T07:22:43.979Z,156
2018-11-11T07:23:24.365Z,196
2018-11-11T07:24:04.761Z,232
2018-11-11T07:24:45.777Z,260
2018-11-11T07:25:26.295Z,244
2018-11-11T07:26:07.188Z,232
2018-11-11T07:26:47.593Z,216
2018-11-11T07:27:28.017Z,156
2018-11-11T07:28:08.402Z,116
2018-11-11T07:28:48.804Z,108
2018-11-11T07:29:29.291Z,108
2018-11-11T07:30:09.867Z,100
2018-11-11T07:30:50.167Z,108
2018-11-11T07:31:30.856Z,104
2018-11-11T07:32:11.246Z,104
2018-11-11T07:32:51.677Z,104
2018-11-11T07:33:32.244Z,96
2018-11-11T07:34:12.567Z,96
2018-11-11T07:34:53.005Z,96
2018-11-11T07:35:33.465Z,108
2018-11-11T07:36:13.858Z,120
2018-11-11T07:36:54.653Z,152
2018-11-11T07:37:35.195Z,172
2018-11-11T07:38:15.438Z,156
2018-11-11T07:38:55.889Z,172
2018-11-11T07:39:36.272Z,172
2018-11-11T07:40:16.887Z,176
2018-11-11T07:40:57.270Z,188
2018-11-11T07:41:37.766Z,192
2018-11-11T07:42:18.338Z,200
2018-11-11T07:42:58.598Z,244
2018-11-11T07:43:38.996Z,248
2018-11-11T07:44:19.547Z,264
2018-11-11T07:44:59.940Z,280
2018-11-11T07:45:40.304Z,320
2018-11-11T07:46:20.739Z,400
2018-11-11T07:47:01.084Z,432
2018-11-11T07:47:41.558Z,436
2018-11-11T07:48:22.205Z,448
2018-11-11T07:49:02.509Z,388
2018-11-11T07:49:42.950Z,336
2018-11-11T07:50:23.408Z,312
2018-11-11T07:51:03.885Z,332
2018-11-11T07:51:44.321Z,320
2018-11-11T07:52:24.711Z,316
2018-11-11T07:53:05.198Z,292
2018-11-11T07:53:45.703Z,268
2018-11-11T07:54:26.152Z,272
2018-11-11T07:55:06.765Z,272
2018-11-11T07:55:46.930Z,228
2018-11-11T07:56:27.464Z,224
2018-11-11T07:57:07.751Z,228
2018-11-11T07:57:48.360Z,244
2018-11-11T07:58:28.902Z,232
2018-11-11T07:59:09.128Z,204
2018-11-11T07:59:49.823Z,212
2018-11-11T08:00:30.281Z,236
2018-11-11T08:01:10.659Z,248
2018-11-11T08:01:51.145Z,240
2018-11-11T08:02:31.517Z,256
2018-11-11T08:03:12.267Z,252
2018-11-11T08:05:41.363Z,224
2018-11-11T08:06:23.743Z,244
2018-11-11T08:07:03.567Z,284
2018-11-11T08:07:44.054Z,300
2018-11-11T08:08:24.432Z,300
2018-11-11T08:09:04.822Z,332
2018-11-11T08:09:45.210Z,328
2018-11-11T08:10:25.694Z,360
2018-11-11T08:11:06.145Z,356
2018-11-11T08:11:47.218Z,340
2018-11-11T08:12:27.682Z,328
2018-11-11T08:13:08.216Z,320
2018-11-11T08:13:48.764Z,328
2018-11-11T08:14:29.013Z,344
2018-11-11T08:15:09.417Z,360
2018-11-11T08:15:50.324Z,392
2018-11-11T08:16:30.342Z,444
2018-11-11T08:17:10.709Z,632
2018-11-11T08:17:51.044Z,708
2018-11-11T08:18:31.758Z,936
2018-11-11T08:19:12.243Z,1024
2018-11-11T08:19:52.541Z,1080
2018-11-11T08:20:33.004Z,1228
2018-11-11T08:21:13.457Z,1360
2018-11-11T08:23:28.337Z,1276
2018-11-11T08:24:08.743Z,1252
2018-11-11T08:24:49.153Z,1256
2018-11-11T08:25:29.611Z,1320
2018-11-11T08:26:09.957Z,1300
2018-11-11T08:26:50.341Z,1284
2018-11-11T08:27:30.764Z,1160
2018-11-11T08:28:11.316Z,1412
2018-11-11T08:28:51.828Z,1380
2018-11-11T08:29:32.691Z,1340
2018-11-11T08:30:13.035Z,1260
2018-11-11T08:30:53.467Z,1192
2018-11-11T08:31:33.847Z,1176
2018-11-11T08:32:14.338Z,1172
2018-11-11T08:32:54.725Z,1148
2018-11-11T08:33:35.226Z,1140
2018-11-11T08:34:15.921Z,1132
2018-11-11T08:34:56.234Z,1128
2018-11-11T08:35:36.712Z,1136
2018-11-11T08:36:17.156Z,1148
2018-11-11T08:36:57.570Z,1148
2018-11-11T08:37:37.935Z,1152
2018-11-11T08:38:18.843Z,1168
2018-11-11T08:38:59.184Z,1196
2018-11-11T08:39:39.632Z,1224
2018-11-11T08:40:19.910Z,1248
2018-11-11T08:41:00.304Z,1276
2018-11-11T08:41:40.909Z,1336
2018-11-11T08:42:21.381Z,1232
2018-11-11T08:43:02.070Z,1308
2018-11-11T08:43:42.444Z,1288
2018-11-11T08:44:23.608Z,1344
2018-11-11T08:45:03.412Z,1376
2018-11-11T08:45:43.896Z,1352
2018-11-11T08:46:24.316Z,1444
2018-11-11T08:47:04.887Z,1416
2018-11-11T08:47:46.088Z,1268
2018-11-11T08:48:26.576Z,1240
2018-11-11T08:49:06.937Z,1432
2018-11-11T08:49:47.415Z,1372
2018-11-11T08:50:27.875Z,1448
2018-11-11T08:51:08.215Z,1464
2018-11-11T08:51:48.830Z,1124
2018-11-11T08:52:29.136Z,1152
2018-11-11T08:53:09.536Z,1476
2018-11-11T08:53:50.079Z,1100
2018-11-11T08:54:30.520Z,1200
2018-11-11T08:55:10.894Z,1128
2018-11-11T08:57:24.794Z,1100
2018-11-11T08:58:05.190Z,1076
2018-11-11T08:58:45.547Z,1520
2018-11-11T08:59:25.970Z,1464
2018-11-11T09:00:06.564Z,1320
2018-11-11T09:00:46.955Z,1224
2018-11-11T09:01:27.343Z,1424
2018-11-11T09:02:07.965Z,984
2018-11-11T09:02:48.596Z,908
2018-11-11T09:03:29.363Z,1240
2018-11-11T09:04:10.561Z,1212
2018-11-11T09:04:51.269Z,1220
2018-11-11T09:05:31.523Z,1292
2018-11-11T09:06:12.017Z,960
2018-11-11T09:06:52.523Z,1192
2018-11-11T09:07:32.994Z,1248
2018-11-11T09:08:13.405Z,1188
2018-11-11T09:08:53.812Z,1224
2018-11-11T09:09:34.305Z,1200
2018-11-11T09:10:14.816Z,1188
2018-11-11T09:10:55.270Z,1208
2018-11-11T09:11:35.889Z,1236
2018-11-11T09:12:16.892Z,1220
2018-11-11T09:12:57.468Z,1244
2018-11-11T09:13:38.145Z,1304
2018-11-11T09:14:18.740Z,940
2018-11-11T09:14:59.130Z,1016
2018-11-11T09:15:39.914Z,1428
2018-11-11T09:16:20.080Z,1204
2018-11-11T09:17:00.500Z,1436
2018-11-11T09:17:40.940Z,1420
2018-11-11T09:18:21.368Z,1520
2018-11-11T09:19:01.779Z,1580
2018-11-11T09:19:42.660Z,1108
2018-11-11T09:20:23.151Z,1396
2018-11-11T09:21:03.587Z,1476
2018-11-11T09:21:44.014Z,1704
2018-11-11T09:22:24.792Z,1716
2018-11-11T09:23:05.198Z,1468
2018-11-11T09:23:45.677Z,1724
2018-11-11T09:24:26.342Z,1316
2018-11-11T09:25:06.798Z,1720
2018-11-11T09:25:47.338Z,1868
2018-11-11T09:26:27.686Z,1656
2018-11-11T09:27:08.244Z,1476
2018-11-11T09:27:48.632Z,1024
2018-11-11T09:28:29.396Z,1068
2018-11-11T09:30:31.177Z,1412
2018-11-11T09:31:11.802Z,1180
2018-11-11T09:31:52.421Z,1192
2018-11-11T09:32:32.865Z,1216
2018-11-11T09:33:13.387Z,1128
2018-11-11T09:33:53.982Z,1148
2018-11-11T09:34:34.664Z,1184
2018-11-11T09:35:15.357Z,1100
2018-11-11T09:35:55.839Z,1064
2018-11-11T09:36:36.464Z,1088
2018-11-11T09:37:17.291Z,1048
2018-11-11T09:37:57.658Z,932
2018-11-11T09:38:38.213Z,916
2018-11-11T09:39:19.443Z,876
2018-11-11T09:39:59.261Z,972
2018-11-11T09:40:39.729Z,1020
2018-11-11T09:41:20.126Z,912
2018-11-11T09:42:00.741Z,1064
2018-11-11T09:42:41.231Z,1072
2018-11-11T09:43:21.622Z,928
2018-11-11T09:44:02.067Z,960
2018-11-11T09:44:42.783Z,964
2018-11-11T09:45:23.860Z,988
2018-11-11T09:46:04.272Z,944
2018-11-11T09:46:44.694Z,896
2018-11-11T09:47:25.177Z,856
2018-11-11T09:48:05.974Z,904
2018-11-11T09:48:46.688Z,1016
2018-11-11T09:49:27.432Z,1376
2018-11-11T09:50:08.371Z,1072
2018-11-11T09:50:48.850Z,1188
2018-11-11T09:51:29.222Z,1308
2018-11-11T09:52:09.901Z,996
2018-11-11T09:52:50.151Z,904
2018-11-11T09:53:30.491Z,1120
2018-11-11T09:54:11.190Z,1608
2018-11-11T09:54:51.669Z,1476
2018-11-11T09:55:32.040Z,1268
2018-11-11T09:56:12.397Z,1400
2018-11-11T09:56:53.791Z,1288
2018-11-11T09:57:34.162Z,1428
2018-11-11T09:58:14.646Z,1432
2018-11-11T09:58:55.974Z,1408
2018-11-11T09:59:36.555Z,1200
2018-11-11T10:00:17.462Z,1576
2018-11-11T10:00:57.933Z,1364
2018-11-11T10:01:39.154Z,1400
2018-11-11T10:02:19.595Z,1716
2018-11-11T10:03:00.373Z,1692
2018-11-11T10:03:40.987Z,1808
2018-11-11T10:04:21.397Z,1556
2018-11-11T10:05:01.805Z,1524
2018-11-11T10:07:38.330Z,1732
2018-11-11T10:08:18.613Z,1740
2018-11-11T10:08:58.945Z,1508
2018-11-11T10:09:39.493Z,1512
2018-11-11T10:10:19.844Z,1624
2018-11-11T10:11:00.573Z,1780
2018-11-11T10:11:41.034Z,1572
2018-11-11T10:12:21.495Z,1524
2018-11-11T10:13:02.045Z,1656
2018-11-11T10:13:42.691Z,1716
2018-11-11T10:14:23.333Z,1704
2018-11-11T10:15:03.517Z,1648
2018-11-11T10:15:43.909Z,1444
2018-11-11T10:16:24.438Z,1412
2018-11-11T10:20:25.147Z,1232
2018-11-11T10:21:06.104Z,1076
2018-11-11T10:21:46.576Z,908
2018-11-11T10:22:26.807Z,900
2018-11-11T10:23:07.311Z,956
2018-11-11T10:23:47.769Z,972
2018-11-11T10:24:28.262Z,1156
2018-11-11T10:25:09.927Z,1072
2018-11-11T10:25:50.241Z,896
2018-11-11T10:26:30.693Z,980
2018-11-11T10:27:11.159Z,944
2018-11-11T10:27:51.714Z,1000
2018-11-11T10:28:32.387Z,1132
2018-11-11T10:29:12.871Z,1132
2018-11-11T11:07:07.970Z,1368
2018-11-11T11:07:48.877Z,1464
2018-11-11T11:08:29.978Z,1532
2018-11-11T11:09:11.199Z,1508
2018-11-11T11:09:51.735Z,1564
2018-11-11T11:10:32.604Z,1660
2018-11-11T11:11:12.986Z,1412
2018-11-11T11:11:53.452Z,1372
2018-11-11T11:12:34.153Z,1364
2018-11-11T11:13:14.829Z,1412
2018-11-11T11:13:56.064Z,1536
2018-11-11T11:14:36.593Z,1424
2018-11-11T11:15:17.075Z,1420
2018-11-11T11:15:57.831Z,1308
2018-11-11T11:16:38.682Z,1248
2018-11-11T11:17:19.580Z,1320
2018-11-11T11:17:59.756Z,1340
2018-11-11T11:18:40.489Z,1344
2018-11-11T11:19:21.444Z,1308
2018-11-11T11:20:01.722Z,1292
2018-11-11T11:20:42.272Z,1304
2018-11-11T11:21:23.004Z,1296
2018-11-11T11:22:03.455Z,1308
2018-11-11T11:22:44.627Z,1328
2018-11-11T11:23:25.093Z,1364
2018-11-11T11:24:05.751Z,1392
2018-11-11T11:24:46.362Z,1432
2018-11-11T11:25:27.051Z,1484